createdAt,value
2018-11-21T00:01:13.003Z,98735.99
2018-11-21T00:03:43.981Z,98725.05
2018-11-21T00:06:14.934Z,98724.37
2018-11-21T00:08:45.957Z,98731.61
2018-11-21T00:11:16.909Z,98737.34
2018-11-21T00:13:47.878Z,98749.60
2018-11-21T00:16:18.860Z,98765.77
2018-11-21T00:18:49.863Z,98768.83
2018-11-21T00:21:20.811Z,98768.98
2018-11-21T00:23:51.877Z,98770.83
2018-11-21T00:26:22.834Z,98780.88
2018-11-21T00:28:53.818Z,98789.02
2018-11-21T00:31:24.773Z,98786.98
2018-11-21T00:33:55.807Z,98794.84
2018-11-21T00:36:26.798Z,98793.55
2018-11-21T00:38:57.776Z,98792.50
2018-11-21T00:41:28.754Z,98801.70
2018-11-21T00:43:59.738Z,98808.16
2018-11-21T00:46:30.705Z,98806.88
2018-11-21T00:49:01.694Z,98799.92
2018-11-21T00:51:32.596Z,98797.84
2018-11-21T00:54:03.656Z,98795.63
2018-11-21T00:56:35.286Z,98793.50
2018-11-21T00:59:06.137Z,98797.18
2018-11-21T01:01:37.171Z,98804.45
2018-11-21T01:04:08.114Z,98811.67
2018-11-21T01:06:39.086Z,98815.17
2018-11-21T01:09:10.040Z,98818.61
2018-11-21T01:11:41.023Z,98820.69
2018-11-21T01:14:11.998Z,98822.45
2018-11-21T01:16:43.056Z,98827.94
2018-11-21T01:19:13.995Z,98831.84
2018-11-21T01:21:44.969Z,98826.02
2018-11-21T01:24:15.895Z,98825.86
2018-11-21T01:26:46.853Z,98825.05
2018-11-21T01:29:17.769Z,98829.42
2018-11-21T01:31:48.709Z,98839.30
2018-11-21T01:34:19.643Z,98834.30
2018-11-21T01:36:50.585Z,98844.45
2018-11-21T01:39:21.512Z,98852.99
2018-11-21T01:41:52.477Z,98856.66
2018-11-21T01:44:23.411Z,98857.89
2018-11-21T01:46:54.363Z,98858.44
2018-11-21T01:49:25.338Z,98859.41
2018-11-21T01:51:56.286Z,98864.89
2018-11-21T01:54:27.225Z,98867.01
2018-11-21T01:56:58.191Z,98862.98
2018-11-21T01:59:29.148Z,98864.23
2018-11-21T02:02:00.098Z,98871.79
2018-11-21T02:04:31.030Z,98869.20
2018-11-21T02:07:02.004Z,98874.91
2018-11-21T02:09:32.930Z,98877.09
2018-11-21T02:12:03.912Z,98878.20
2018-11-21T02:14:34.896Z,98867.20
2018-11-21T02:17:06.039Z,98866.44
2018-11-21T02:19:36.965Z,98863.63
2018-11-21T02:22:08.046Z,98872.02
2018-11-21T02:24:38.961Z,98866.23
2018-11-21T02:27:09.904Z,98870.92
2018-11-21T02:29:40.829Z,98868.47
2018-11-21T02:32:11.766Z,98871.89
2018-11-21T02:34:42.708Z,98864.09
2018-11-21T02:37:13.652Z,98862.00
2018-11-21T02:39:44.569Z,98863.56
2018-11-21T02:42:15.511Z,98852.86
2018-11-21T02:44:46.438Z,98847.88
2018-11-21T02:47:17.387Z,98858.17
2018-11-21T02:49:48.308Z,98842.06
2018-11-21T02:52:19.250Z,98840.01
2018-11-21T02:54:50.187Z,98845.16
2018-11-21T02:57:23.583Z,98855.52
2018-11-21T02:59:57.760Z,98873.03
2018-11-21T03:02:28.725Z,98880.00
2018-11-21T03:04:59.652Z,98885.30
2018-11-21T03:07:30.680Z,98897.31
2018-11-21T03:10:01.605Z,98911.10
2018-11-21T03:12:32.623Z,98914.09
2018-11-21T03:15:03.543Z,98918.84
2018-11-21T03:17:34.552Z,98933.12
2018-11-21T03:20:05.560Z,98940.31
2018-11-21T03:22:36.631Z,98947.85
2018-11-21T03:25:07.630Z,98952.28
2018-11-21T03:27:38.604Z,98954.40
2018-11-21T03:30:11.191Z,98949.62
2018-11-21T03:32:42.573Z,98948.67
2018-11-21T03:35:13.515Z,98950.13
2018-11-21T03:37:44.497Z,98957.78
2018-11-21T03:40:15.380Z,98966.73
2018-11-21T03:42:46.428Z,98968.55
2018-11-21T03:45:20.973Z,98969.61
2018-11-21T03:47:52.007Z,98975.71
2018-11-21T03:50:22.885Z,98977.31
2018-11-21T03:52:54.167Z,98970.98
2018-11-21T03:55:25.117Z,98977.19
2018-11-21T03:57:56.114Z,98979.33
2018-11-21T04:00:27.068Z,98986.63
2018-11-21T04:02:58.055Z,98986.14
2018-11-21T04:05:28.998Z,98987.06
2018-11-21T04:07:59.979Z,98983.51
2018-11-21T04:10:30.945Z,98977.00
2018-11-21T04:13:01.932Z,98963.84
2018-11-21T04:15:32.882Z,98955.34
2018-11-21T04:18:03.856Z,98961.19
2018-11-21T04:20:34.796Z,98956.75
2018-11-21T04:23:05.802Z,98958.43
2018-11-21T04:25:36.795Z,98957.27
2018-11-21T04:28:07.680Z,98967.55
2018-11-21T04:30:38.660Z,98967.09
2018-11-21T04:33:09.608Z,98971.72
2018-11-21T04:35:40.643Z,98982.89
2018-11-21T04:38:11.528Z,98984.80
2018-11-21T04:40:42.519Z,98993.81
2018-11-21T04:43:13.557Z,98997.11
2018-11-21T04:45:44.485Z,99008.33
2018-11-21T04:48:15.437Z,99017.67
2018-11-21T04:50:46.420Z,99014.19
2018-11-21T04:53:17.367Z,99015.00
2018-11-21T04:55:48.288Z,99022.33
2018-11-21T04:58:19.241Z,99026.36
2018-11-21T05:00:50.166Z,99031.59
2018-11-21T05:03:21.620Z,99028.34
2018-11-21T05:05:52.538Z,99030.89
2018-11-21T05:08:23.492Z,99029.15
2018-11-21T05:10:54.415Z,99030.75
2018-11-21T05:13:25.367Z,99033.37
2018-11-21T05:15:56.229Z,99040.89
2018-11-21T05:18:27.338Z,99048.55
2018-11-21T05:20:58.284Z,99043.73
2018-11-21T05:23:29.269Z,99043.52
2018-11-21T05:26:00.214Z,99046.92
2018-11-21T05:28:31.130Z,99039.97
2018-11-21T05:31:02.157Z,99038.05
2018-11-21T05:33:33.136Z,99039.02
2018-11-21T05:36:04.095Z,99039.18
2018-11-21T05:38:35.081Z,99034.43
2018-11-21T05:41:06.452Z,99030.25
2018-11-21T05:43:37.433Z,99030.00
2018-11-21T05:46:08.381Z,99038.33
2018-11-21T05:48:39.496Z,99044.65
2018-11-21T05:51:10.471Z,99048.05
2018-11-21T05:53:41.474Z,99048.00
2018-11-21T05:56:12.440Z,99050.42
2018-11-21T05:58:43.418Z,99050.81
2018-11-21T06:01:14.388Z,99051.85
2018-11-21T06:03:45.360Z,99052.73
2018-11-21T06:06:16.606Z,99058.13
2018-11-21T06:08:47.589Z,99059.47
2018-11-21T06:11:18.542Z,99069.83
2018-11-21T06:13:49.467Z,99076.00
2018-11-21T06:16:20.472Z,99076.56
2018-11-21T06:18:51.504Z,99073.66
2018-11-21T06:21:22.453Z,99077.53
2018-11-21T06:23:53.680Z,99080.16
2018-11-21T06:26:24.604Z,99084.11
2018-11-21T06:28:55.563Z,99084.73
2018-11-21T06:31:26.483Z,99098.66
2018-11-21T06:33:57.542Z,99101.09
2018-11-21T06:36:28.469Z,99110.67
2018-11-21T06:38:59.424Z,99115.98
2018-11-21T06:41:30.363Z,99123.89
2018-11-21T06:44:01.280Z,99133.44
2018-11-21T06:46:32.257Z,99133.14
2018-11-21T06:49:03.179Z,99135.11
2018-11-21T06:51:35.290Z,99141.58
2018-11-21T06:54:06.431Z,99143.65
2018-11-21T06:56:37.392Z,99146.42
2018-11-21T06:59:08.325Z,99147.11
2018-11-21T07:01:39.279Z,99154.87
2018-11-21T07:04:10.201Z,99159.22
2018-11-21T07:06:41.175Z,99160.73
2018-11-21T07:09:12.921Z,99162.63
2018-11-21T07:11:43.871Z,99167.03
2018-11-21T07:14:14.795Z,99173.92
2018-11-21T07:16:45.733Z,99175.20
2018-11-21T07:19:16.672Z,99178.90
2018-11-21T07:21:47.667Z,99186.61
2018-11-21T07:24:18.623Z,99188.64
2018-11-21T07:26:49.657Z,99192.92
2018-11-21T07:29:20.603Z,99191.41
2018-11-21T07:31:51.591Z,99192.36
2018-11-21T07:34:22.563Z,99190.75
2018-11-21T07:36:53.540Z,99192.59
2018-11-21T07:39:24.496Z,99192.16
2018-11-21T07:41:55.589Z,99195.42
2018-11-21T07:44:26.522Z,99197.88
2018-11-21T07:46:57.546Z,99199.52
2018-11-21T07:49:28.525Z,99209.18
2018-11-21T07:51:59.475Z,99212.67
2018-11-21T07:54:30.445Z,99213.92
2018-11-21T07:57:30.428Z,99217.88
2018-11-21T08:01:18.312Z,99216.66
2018-11-21T08:03:51.260Z,99208.20
2018-11-21T08:06:24.930Z,99214.52
2018-11-21T08:09:14.938Z,99215.32
2018-11-21T08:12:07.891Z,99215.83
2018-11-21T08:15:19.100Z,99214.47
2018-11-21T08:18:18.327Z,99208.29
2018-11-21T08:21:11.446Z,99209.97
2018-11-21T08:24:06.967Z,99215.95
2018-11-21T08:26:56.711Z,99225.80
2018-11-21T08:29:27.680Z,99228.48
2018-11-21T08:31:58.620Z,99226.50
2018-11-21T08:34:29.573Z,99224.53
2018-11-21T08:37:00.515Z,99227.12
2018-11-21T08:39:31.474Z,99235.02
2018-11-21T08:42:02.410Z,99231.36
2018-11-21T08:44:33.426Z,99228.16
2018-11-21T08:47:04.476Z,99232.73
2018-11-21T08:49:35.444Z,99233.51
2018-11-21T08:52:07.016Z,99232.08
2018-11-21T08:54:38.091Z,99236.55
2018-11-21T08:57:09.083Z,99226.66
2018-11-21T08:59:40.106Z,99237.48
2018-11-21T09:02:11.076Z,99238.02
2018-11-21T09:04:42.559Z,99244.73
2018-11-21T09:07:13.041Z,99249.88
2018-11-21T09:09:44.056Z,99245.53
2018-11-21T09:12:15.412Z,99245.45
2018-11-21T09:14:46.063Z,99256.28
2018-11-21T09:17:17.041Z,99255.19
2018-11-21T09:19:48.018Z,99259.94
2018-11-21T09:22:18.951Z,99253.50
2018-11-21T09:24:49.940Z,99249.69
2018-11-21T09:27:20.880Z,99258.09
2018-11-21T09:29:51.867Z,99260.52
2018-11-21T09:32:22.824Z,99263.02
2018-11-21T09:34:53.781Z,99269.69
2018-11-21T09:37:25.138Z,99276.66
2018-11-21T09:39:56.097Z,99272.19
2018-11-21T09:42:27.098Z,99280.47
2018-11-21T09:44:58.069Z,99281.03
2018-11-21T09:47:29.020Z,99280.89
2018-11-21T09:50:00.016Z,99290.48
2018-11-21T09:52:30.954Z,99287.98
2018-11-21T09:55:01.927Z,99288.55
2018-11-21T09:57:32.855Z,99292.61
2018-11-21T10:00:23.239Z,99297.06
2018-11-21T10:03:21.566Z,99295.38
2018-11-21T10:06:25.435Z,99304.47
2018-11-21T10:09:05.241Z,99307.63
2018-11-21T10:11:37.206Z,99314.30
2018-11-21T10:14:08.143Z,99319.31
2018-11-21T10:16:39.113Z,99325.55
2018-11-21T10:19:10.052Z,99323.23
2018-11-21T10:21:41.069Z,99331.19
2018-11-21T10:24:12.035Z,99335.88
2018-11-21T10:26:43.015Z,99335.34
2018-11-21T10:29:14.032Z,99338.98
2018-11-21T10:31:45.017Z,99331.83
2018-11-21T10:34:15.978Z,99336.54
2018-11-21T10:36:46.954Z,99340.09
2018-11-21T10:39:17.911Z,99342.68
2018-11-21T10:41:48.879Z,99341.97
2018-11-21T10:44:19.832Z,99338.97
2018-11-21T10:46:50.804Z,99332.33
2018-11-21T10:49:21.769Z,99330.55
2018-11-21T10:51:52.752Z,99327.63
2018-11-21T10:54:23.699Z,99336.66
2018-11-21T10:56:54.680Z,99334.48
2018-11-21T10:59:25.854Z,99327.84
2018-11-21T11:02:14.666Z,99328.63
2018-11-21T11:04:54.674Z,99330.84
2018-11-21T11:07:43.396Z,99325.49
2018-11-21T11:10:50.129Z,99329.27
2018-11-21T11:13:47.701Z,99327.08
2018-11-21T11:16:43.753Z,99333.92
2018-11-21T11:19:33.798Z,99337.06
2018-11-21T11:22:22.483Z,99339.47
2018-11-21T11:25:18.202Z,99341.44
2018-11-21T11:28:17.362Z,99335.44
2018-11-21T11:31:01.809Z,99331.54
2018-11-21T11:33:54.833Z,99331.70
2018-11-21T11:36:54.040Z,99327.23
2018-11-21T11:39:44.046Z,99320.59
2018-11-21T11:42:32.812Z,99323.53
2018-11-21T11:45:21.416Z,99324.31
2018-11-21T11:48:26.536Z,99322.69
2018-11-21T11:51:14.851Z,99319.98
2018-11-21T11:54:03.504Z,99323.16
2018-11-21T11:56:48.619Z,99322.03
2018-11-21T11:59:41.729Z,99325.08
2018-11-21T12:02:35.998Z,99329.38
2018-11-21T12:05:36.752Z,99320.52
2018-11-21T12:08:25.865Z,99323.75
2018-11-21T12:11:21.724Z,99327.54
2018-11-21T12:14:10.663Z,99326.74
2018-11-21T12:17:06.508Z,99328.66
2018-11-21T12:19:55.365Z,99329.77
2018-11-21T12:23:00.345Z,99325.23
2018-11-21T12:26:00.573Z,99323.10
2018-11-21T12:28:53.473Z,99319.08
2018-11-21T12:31:43.454Z,99319.70
2018-11-21T12:34:32.026Z,99327.63
2018-11-21T12:37:20.769Z,99323.91
2018-11-21T12:40:13.609Z,99322.13
2018-11-21T12:43:19.010Z,99327.45
2018-11-21T12:46:11.966Z,99338.55
2018-11-21T12:49:10.938Z,99338.39
2018-11-21T12:51:58.949Z,99341.62
2018-11-21T12:54:54.666Z,99341.94
2018-11-21T12:57:43.329Z,99334.34
2018-11-21T13:00:27.203Z,99340.06
2018-11-21T13:03:18.788Z,99337.37
2018-11-21T13:06:11.869Z,99331.98
2018-11-21T13:08:56.843Z,99333.55
2018-11-21T13:11:41.475Z,99330.08
2018-11-21T13:14:30.179Z,99342.91
2018-11-21T13:17:20.184Z,99346.12
2018-11-21T13:20:12.891Z,99350.72
2018-11-21T13:23:01.580Z,99350.41
2018-11-21T13:25:50.246Z,99348.63
2018-11-21T13:28:43.215Z,99351.24
2018-11-21T13:31:33.210Z,99345.52
2018-11-21T13:34:22.087Z,99344.50
2018-11-21T13:37:17.844Z,99348.64
2018-11-21T13:40:03.409Z,99350.04
2018-11-21T13:42:54.225Z,99352.63
2018-11-21T13:45:43.030Z,99347.09
2018-11-21T13:48:45.358Z,99352.23
2018-11-21T13:51:34.081Z,99358.83
2018-11-21T13:54:24.596Z,99369.05
2018-11-21T13:56:55.545Z,99367.63
2018-11-21T13:59:26.684Z,99372.27
2018-11-21T14:01:57.628Z,99374.89
2018-11-21T14:04:28.573Z,99372.80
2018-11-21T14:06:59.557Z,99376.05
2018-11-21T14:09:30.485Z,99368.52
2018-11-21T14:12:01.434Z,99369.45
2018-11-21T14:14:32.358Z,99377.86
2018-11-21T14:17:03.291Z,99379.78
2018-11-21T14:19:34.219Z,99390.70
2018-11-21T14:22:05.354Z,99399.05
2018-11-21T14:24:36.278Z,99396.92
2018-11-21T14:27:07.223Z,99398.11
2018-11-21T14:29:38.148Z,99402.13
2018-11-21T14:32:09.096Z,99406.33
2018-11-21T14:34:40.052Z,99420.88
2018-11-21T14:37:10.998Z,99416.02
2018-11-21T14:39:41.954Z,99417.84
2018-11-21T14:42:12.891Z,99409.32
2018-11-21T14:44:43.832Z,99409.22
2018-11-21T14:47:16.461Z,99406.94
2018-11-21T14:49:53.372Z,99410.83
2018-11-21T14:52:24.348Z,99410.97
2018-11-21T14:54:55.287Z,99413.41
2018-11-21T14:57:26.630Z,99410.23
2018-11-21T14:59:57.544Z,99413.11
2018-11-21T15:02:28.583Z,99430.73
2018-11-21T15:04:59.491Z,99436.97
2018-11-21T15:07:30.454Z,99433.09
2018-11-21T15:10:01.391Z,99439.27
2018-11-21T15:12:32.353Z,99443.48
2018-11-21T15:15:03.268Z,99449.67
2018-11-21T15:17:34.200Z,99454.89
2018-11-21T15:20:08.516Z,99459.01
2018-11-21T15:22:39.545Z,99471.80
2018-11-21T15:25:13.472Z,99469.98
2018-11-21T15:27:44.435Z,99477.34
2018-11-21T15:30:18.892Z,99482.25
2018-11-21T15:32:49.980Z,99487.55
2018-11-21T15:35:21.295Z,99488.91
2018-11-21T15:37:52.260Z,99492.62
2018-11-21T15:40:24.515Z,99490.70
2018-11-21T15:42:55.480Z,99496.92
2018-11-21T15:45:27.103Z,99490.89
2018-11-21T15:48:00.333Z,99494.19
2018-11-21T15:50:32.163Z,99491.90
2018-11-21T15:53:03.130Z,99485.97
2018-11-21T15:55:34.089Z,99484.69
2018-11-21T15:58:05.331Z,99492.86
2018-11-21T16:00:36.628Z,99500.16
2018-11-21T16:03:08.826Z,99499.20
2018-11-21T16:05:39.826Z,99498.27
2018-11-21T16:08:10.761Z,99502.45
2018-11-21T16:10:43.269Z,99500.48
2018-11-21T16:13:14.328Z,99512.44
2018-11-21T16:15:51.075Z,99512.39
2018-11-21T16:18:23.653Z,99516.52
2018-11-21T16:20:54.648Z,99515.36
2018-11-21T16:23:25.648Z,99522.94
2018-11-21T16:25:56.594Z,99526.80
2018-11-21T16:28:27.630Z,99525.13
2018-11-21T16:30:58.629Z,99529.44
2018-11-21T16:33:29.610Z,99528.68
2018-11-21T16:36:00.562Z,99529.59
2018-11-21T16:38:31.551Z,99528.78
2018-11-21T16:41:02.510Z,99532.82
2018-11-21T16:43:33.485Z,99533.77
2018-11-21T16:46:04.485Z,99539.86
2018-11-21T16:48:35.462Z,99536.41
2018-11-21T16:51:06.464Z,99540.52
2018-11-21T16:53:39.912Z,99540.09
2018-11-21T16:56:10.860Z,99539.16
2018-11-21T16:58:41.833Z,99543.28
2018-11-21T17:01:12.768Z,99545.13
2018-11-21T17:03:43.805Z,99546.05
2018-11-21T17:06:14.685Z,99547.11
2018-11-21T17:08:45.769Z,99542.66
2018-11-21T17:11:16.713Z,99550.08
2018-11-21T17:13:47.727Z,99552.94
2018-11-21T17:16:18.707Z,99553.03
2018-11-21T17:18:49.677Z,99552.97
2018-11-21T17:21:20.666Z,99546.78
